sensor_id;sensor_type;location;lat;lon;timestamp;P1;durP1;ratioP1;P2;durP2;ratioP2
11921;SDS011;6021;51.182;3.160;2023-03-01T00:01:30;9.40;;;8.50;;
11921;SDS011;6021;51.182;3.160;2023-03-01T00:03:56;9.10;;;8.40;;
11921;SDS011;6021;51.182;3.160;2023-03-01T00:06:25;9.37;;;8.57;;
11921;SDS011;6021;51.182;3.160;2023-03-01T00:08:54;9.10;;;8.40;;
11921;SDS011;6021;51.182;3.160;2023-03-01T00:11:27;9.10;;;8.30;;
11921;SDS011;6021;51.182;3.160;2023-03-01T00:13:57;9.00;;;8.30;;
11921;SDS011;6021;51.182;3.160;2023-03-01T00:16:29;8.90;;;8.20;;
11921;SDS011;6021;51.182;3.160;2023-03-01T00:19:00;9.43;;;8.63;;
11921;SDS011;6021;51.182;3.160;2023-03-01T00:21:28;10.03;;;9.10;;
11921;SDS011;6021;51.182;3.160;2023-03-01T00:23:57;9.27;;;8.57;;
11921;SDS011;6021;51.182;3.160;2023-03-01T00:26:25;10.07;;;9.27;;
11921;SDS011;6021;51.182;3.160;2023-03-01T00:28:54;8.90;;;8.20;;
11921;SDS011;6021;51.182;3.160;2023-03-01T00:31:25;9.53;;;8.70;;
11921;SDS011;6021;51.182;3.160;2023-03-01T00:33:56;9.70;;;8.90;;
11921;SDS011;6021;51.182;3.160;2023-03-01T00:36:27;9.70;;;8.90;;
11921;SDS011;6021;51.182;3.160;2023-03-01T00:38:57;9.77;;;8.97;;
11921;SDS011;6021;51.182;3.160;2023-03-01T00:41:26;10.70;;;9.77;;
11921;SDS011;6021;51.182;3.160;2023-03-01T00:43:55;10.80;;;10.00;;
11921;SDS011;6021;51.182;3.160;2023-03-01T00:46:25;10.50;;;9.60;;
11921;SDS011;6021;51.182;3.160;2023-03-01T00:48:56;10.57;;;9.77;;
11921;SDS011;6021;51.182;3.160;2023-03-01T00:51:25;10.80;;;9.90;;
11921;SDS011;6021;51.182;3.160;2023-03-01T00:53:55;10.50;;;9.70;;
11921;SDS011;6021;51.182;3.160;2023-03-01T00:56:26;10.20;;;9.40;;
11921;SDS011;6021;51.182;3.160;2023-03-01T00:58:54;11.10;;;10.20;;
11921;SDS011;6021;51.182;3.160;2023-03-01T01:01:24;10.47;;;9.63;;
11921;SDS011;6021;51.182;3.160;2023-03-01T01:04:03;10.77;;;9.97;;
11921;SDS011;6021;51.182;3.160;2023-03-01T01:06:30;10.63;;;9.83;;
11921;SDS011;6021;51.182;3.160;2023-03-01T01:09:01;11.47;;;10.57;;
11921;SDS011;6021;51.182;3.160;2023-03-01T01:11:30;12.57;;;11.57;;
11921;SDS011;6021;51.182;3.160;2023-03-01T01:13:59;11.80;;;10.80;;
11921;SDS011;6021;51.182;3.160;2023-03-01T01:16:28;12.10;;;11.20;;
11921;SDS011;6021;51.182;3.160;2023-03-01T01:18:57;11.83;;;10.93;;
11921;SDS011;6021;51.182;3.160;2023-03-01T01:21:25;12.10;;;11.20;;
11921;SDS011;6021;51.182;3.160;2023-03-01T01:23:54;12.97;;;12.00;;
11921;SDS011;6021;51.182;3.160;2023-03-01T01:26:24;11.90;;;11.03;;
11921;SDS011;6021;51.182;3.160;2023-03-01T01:28:54;11.77;;;10.87;;
11921;SDS011;6021;51.182;3.160;2023-03-01T01:31:23;12.00;;;11.10;;
11921;SDS011;6021;51.182;3.160;2023-03-01T01:33:52;12.77;;;11.67;;
11921;SDS011;6021;51.182;3.160;2023-03-01T01:36:22;12.30;;;11.40;;
11921;SDS011;6021;51.182;3.160;2023-03-01T01:38:50;12.50;;;11.50;;
11921;SDS011;6021;51.182;3.160;2023-03-01T01:41:19;12.90;;;11.90;;
11921;SDS011;6021;51.182;3.160;2023-03-01T01:43:49;14.13;;;12.93;;
11921;SDS011;6021;51.182;3.160;2023-03-01T01:46:21;13.70;;;12.60;;
11921;SDS011;6021;51.182;3.160;2023-03-01T01:49:00;14.37;;;13.27;;
11921;SDS011;6021;51.182;3.160;2023-03-01T01:51:32;15.07;;;13.87;;
11921;SDS011;6021;51.182;3.160;2023-03-01T01:54:09;15.20;;;13.90;;
11921;SDS011;6021;51.182;3.160;2023-03-01T01:56:40;14.30;;;13.20;;
11921;SDS011;6021;51.182;3.160;2023-03-01T01:59:10;14.73;;;13.60;;
11921;SDS011;6021;51.182;3.160;2023-03-01T02:01:39;13.07;;;12.03;;
11921;SDS011;6021;51.182;3.160;2023-03-01T02:04:08;15.20;;;14.00;;
11921;SDS011;6021;51.182;3.160;2023-03-01T02:06:38;14.73;;;13.57;;
11921;SDS011;6021;51.182;3.160;2023-03-01T02:09:12;16.10;;;14.80;;
11921;SDS011;6021;51.182;3.160;2023-03-01T02:11:43;15.00;;;13.83;;
11921;SDS011;6021;51.182;3.160;2023-03-01T02:14:11;14.43;;;13.27;;
11921;SDS011;6021;51.182;3.160;2023-03-01T02:16:40;15.30;;;14.07;;
11921;SDS011;6021;51.182;3.160;2023-03-01T02:19:08;16.50;;;15.13;;
11921;SDS011;6021;51.182;3.160;2023-03-01T02:21:46;15.80;;;14.60;;
11921;SDS011;6021;51.182;3.160;2023-03-01T02:24:20;16.10;;;14.83;;
11921;SDS011;6021;51.182;3.160;2023-03-01T02:26:49;16.00;;;14.77;;
11921;SDS011;6021;51.182;3.160;2023-03-01T02:29:20;16.43;;;15.03;;
11921;SDS011;6021;51.182;3.160;2023-03-01T02:31:51;17.20;;;15.87;;
11921;SDS011;6021;51.182;3.160;2023-03-01T02:34:23;16.60;;;15.30;;
11921;SDS011;6021;51.182;3.160;2023-03-01T02:36:55;17.57;;;16.07;;
11921;SDS011;6021;51.182;3.160;2023-03-01T02:39:31;17.17;;;15.67;;
11921;SDS011;6021;51.182;3.160;2023-03-01T02:42:13;16.17;;;14.87;;
11921;SDS011;6021;51.182;3.160;2023-03-01T02:44:44;18.53;;;17.03;;
11921;SDS011;6021;51.182;3.160;2023-03-01T02:47:12;17.53;;;16.03;;
11921;SDS011;6021;51.182;3.160;2023-03-01T02:49:41;17.50;;;16.00;;
11921;SDS011;6021;51.182;3.160;2023-03-01T02:55:11;18.13;;;16.53;;
11921;SDS011;6021;51.182;3.160;2023-03-01T02:57:42;16.90;;;15.50;;
11921;SDS011;6021;51.182;3.160;2023-03-01T03:00:17;17.13;;;15.80;;
11921;SDS011;6021;51.182;3.160;2023-03-01T03:02:45;17.00;;;15.50;;
11921;SDS011;6021;51.182;3.160;2023-03-01T03:05:16;16.97;;;15.57;;
11921;SDS011;6021;51.182;3.160;2023-03-01T03:07:47;16.63;;;15.23;;
11921;SDS011;6021;51.182;3.160;2023-03-01T03:10:20;18.40;;;16.90;;
11921;SDS011;6021;51.182;3.160;2023-03-01T03:12:54;17.53;;;16.13;;
11921;SDS011;6021;51.182;3.160;2023-03-01T03:15:22;16.97;;;15.57;;
11921;SDS011;6021;51.182;3.160;2023-03-01T03:17:52;16.63;;;15.30;;
11921;SDS011;6021;51.182;3.160;2023-03-01T03:20:22;16.23;;;14.93;;
11921;SDS011;6021;51.182;3.160;2023-03-01T03:22:52;17.37;;;15.97;;
11921;SDS011;6021;51.182;3.160;2023-03-01T03:25:22;17.07;;;15.73;;
11921;SDS011;6021;51.182;3.160;2023-03-01T03:27:52;17.20;;;15.80;;
11921;SDS011;6021;51.182;3.160;2023-03-01T03:30:29;18.40;;;16.87;;
11921;SDS011;6021;51.182;3.160;2023-03-01T03:32:54;18.50;;;16.83;;
11921;SDS011;6021;51.182;3.160;2023-03-01T03:35:24;17.37;;;16.00;;
11921;SDS011;6021;51.182;3.160;2023-03-01T03:37:57;18.33;;;16.83;;
11921;SDS011;6021;51.182;3.160;2023-03-01T03:40:36;18.07;;;16.57;;
11921;SDS011;6021;51.182;3.160;2023-03-01T03:43:02;19.40;;;17.80;;
11921;SDS011;6021;51.182;3.160;2023-03-01T03:45:31;18.73;;;17.17;;
11921;SDS011;6021;51.182;3.160;2023-03-01T03:48:00;18.47;;;17.00;;
11921;SDS011;6021;51.182;3.160;2023-03-01T03:50:30;20.97;;;19.17;;
11921;SDS011;6021;51.182;3.160;2023-03-01T03:53:02;18.30;;;16.80;;
11921;SDS011;6021;51.182;3.160;2023-03-01T03:55:32;20.77;;;18.97;;
11921;SDS011;6021;51.182;3.160;2023-03-01T03:58:01;18.80;;;17.30;;
11921;SDS011;6021;51.182;3.160;2023-03-01T04:00:32;21.10;;;19.37;;
11921;SDS011;6021;51.182;3.160;2023-03-01T04:03:03;20.20;;;18.50;;
11921;SDS011;6021;51.182;3.160;2023-03-01T04:05:31;20.97;;;19.20;;
11921;SDS011;6021;51.182;3.160;2023-03-01T04:08:00;21.00;;;19.20;;
11921;SDS011;6021;51.182;3.160;2023-03-01T04:10:29;21.50;;;19.70;;
11921;SDS011;6021;51.182;3.160;2023-03-01T04:12:59;20.90;;;19.20;;
11921;SDS011;6021;51.182;3.160;2023-03-01T04:15:28;21.07;;;19.37;;
11921;SDS011;6021;51.182;3.160;2023-03-01T04:17:58;20.40;;;18.70;;
11921;SDS011;6021;51.182;3.160;2023-03-01T04:20:28;21.70;;;19.90;;
11921;SDS011;6021;51.182;3.160;2023-03-01T04:23:05;19.07;;;17.47;;
11921;SDS011;6021;51.182;3.160;2023-03-01T04:25:40;22.53;;;20.63;;
11921;SDS011;6021;51.182;3.160;2023-03-01T04:28:10;22.43;;;20.53;;
11921;SDS011;6021;51.182;3.160;2023-03-01T04:30:39;20.80;;;19.00;;
11921;SDS011;6021;51.182;3.160;2023-03-01T04:33:08;20.23;;;18.53;;
11921;SDS011;6021;51.182;3.160;2023-03-01T04:35:38;20.83;;;19.03;;
11921;SDS011;6021;51.182;3.160;2023-03-01T04:38:06;19.03;;;17.43;;
11921;SDS011;6021;51.182;3.160;2023-03-01T04:40:35;20.17;;;18.47;;
11921;SDS011;6021;51.182;3.160;2023-03-01T04:43:04;20.27;;;18.57;;
11921;SDS011;6021;51.182;3.160;2023-03-01T04:45:33;20.80;;;19.00;;
11921;SDS011;6021;51.182;3.160;2023-03-01T04:48:01;20.30;;;18.60;;
11921;SDS011;6021;51.182;3.160;2023-03-01T04:50:30;21.07;;;19.27;;
11921;SDS011;6021;51.182;3.160;2023-03-01T04:52:59;21.50;;;19.60;;
11921;SDS011;6021;51.182;3.160;2023-03-01T04:55:28;19.90;;;18.30;;
11921;SDS011;6021;51.182;3.160;2023-03-01T04:57:57;19.47;;;17.87;;
11921;SDS011;6021;51.182;3.160;2023-03-01T05:00:26;19.30;;;17.60;;
11921;SDS011;6021;51.182;3.160;2023-03-01T05:02:55;20.63;;;18.93;;
11921;SDS011;6021;51.182;3.160;2023-03-01T05:05:30;21.27;;;19.47;;
11921;SDS011;6021;51.182;3.160;2023-03-01T05:08:01;20.50;;;18.70;;
11921;SDS011;6021;51.182;3.160;2023-03-01T05:10:31;21.50;;;19.70;;
11921;SDS011;6021;51.182;3.160;2023-03-01T05:13:02;22.10;;;20.20;;
11921;SDS011;6021;51.182;3.160;2023-03-01T05:15:31;21.50;;;19.60;;
11921;SDS011;6021;51.182;3.160;2023-03-01T05:17:59;22.17;;;20.23;;
11921;SDS011;6021;51.182;3.160;2023-03-01T05:20:28;21.13;;;19.33;;
11921;SDS011;6021;51.182;3.160;2023-03-01T05:22:58;22.17;;;20.27;;
11921;SDS011;6021;51.182;3.160;2023-03-01T05:25:29;21.57;;;19.77;;
11921;SDS011;6021;51.182;3.160;2023-03-01T05:28:00;22.10;;;20.17;;
11921;SDS011;6021;51.182;3.160;2023-03-01T05:30:34;21.87;;;20.00;;
11921;SDS011;6021;51.182;3.160;2023-03-01T05:33:02;21.83;;;19.97;;
11921;SDS011;6021;51.182;3.160;2023-03-01T05:35:32;21.80;;;19.93;;
11921;SDS011;6021;51.182;3.160;2023-03-01T05:38:00;21.40;;;19.60;;
11921;SDS011;6021;51.182;3.160;2023-03-01T05:40:29;21.83;;;19.93;;
11921;SDS011;6021;51.182;3.160;2023-03-01T05:42:57;22.93;;;20.93;;
11921;SDS011;6021;51.182;3.160;2023-03-01T05:45:26;22.50;;;20.50;;
11921;SDS011;6021;51.182;3.160;2023-03-01T05:47:55;21.30;;;19.50;;
11921;SDS011;6021;51.182;3.160;2023-03-01T05:50:25;22.03;;;20.20;;
11921;SDS011;6021;51.182;3.160;2023-03-01T05:55:31;23.43;;;21.37;;
11921;SDS011;6021;51.182;3.160;2023-03-01T05:58:13;22.20;;;20.30;;
11921;SDS011;6021;51.182;3.160;2023-03-01T06:00:43;20.97;;;19.17;;
11921;SDS011;6021;51.182;3.160;2023-03-01T06:03:14;21.00;;;19.13;;
11921;SDS011;6021;51.182;3.160;2023-03-01T06:05:43;22.10;;;20.20;;
11921;SDS011;6021;51.182;3.160;2023-03-01T06:08:12;21.57;;;19.67;;
11921;SDS011;6021;51.182;3.160;2023-03-01T06:10:41;21.00;;;19.20;;
11921;SDS011;6021;51.182;3.160;2023-03-01T06:13:09;21.40;;;19.43;;
11921;SDS011;6021;51.182;3.160;2023-03-01T06:15:38;20.13;;;18.27;;
11921;SDS011;6021;51.182;3.160;2023-03-01T06:18:06;20.13;;;18.43;;
11921;SDS011;6021;51.182;3.160;2023-03-01T06:20:34;19.37;;;17.63;;
11921;SDS011;6021;51.182;3.160;2023-03-01T06:23:02;20.27;;;18.57;;
11921;SDS011;6021;51.182;3.160;2023-03-01T06:25:31;21.37;;;19.47;;
11921;SDS011;6021;51.182;3.160;2023-03-01T06:27:59;20.20;;;18.40;;
11921;SDS011;6021;51.182;3.160;2023-03-01T06:30:28;19.90;;;18.10;;
11921;SDS011;6021;51.182;3.160;2023-03-01T06:32:56;18.80;;;17.20;;
11921;SDS011;6021;51.182;3.160;2023-03-01T06:35:26;19.33;;;17.57;;
11921;SDS011;6021;51.182;3.160;2023-03-01T06:37:58;19.10;;;17.47;;
11921;SDS011;6021;51.182;3.160;2023-03-01T06:40:28;18.13;;;16.53;;
11921;SDS011;6021;51.182;3.160;2023-03-01T06:42:57;18.70;;;17.07;;
11921;SDS011;6021;51.182;3.160;2023-03-01T06:45:26;19.13;;;17.37;;
11921;SDS011;6021;51.182;3.160;2023-03-01T06:48:00;17.77;;;16.17;;
11921;SDS011;6021;51.182;3.160;2023-03-01T06:50:32;17.80;;;16.20;;
11921;SDS011;6021;51.182;3.160;2023-03-01T06:53:01;17.03;;;15.53;;
11921;SDS011;6021;51.182;3.160;2023-03-01T06:55:30;17.93;;;16.40;;
11921;SDS011;6021;51.182;3.160;2023-03-01T06:57:59;17.00;;;15.60;;
11921;SDS011;6021;51.182;3.160;2023-03-01T07:00:28;18.13;;;16.63;;
11921;SDS011;6021;51.182;3.160;2023-03-01T07:02:58;18.43;;;16.83;;
11921;SDS011;6021;51.182;3.160;2023-03-01T07:05:29;17.63;;;16.03;;
11921;SDS011;6021;51.182;3.160;2023-03-01T07:07:58;15.77;;;14.37;;
11921;SDS011;6021;51.182;3.160;2023-03-01T07:10:26;15.23;;;13.93;;
11921;SDS011;6021;51.182;3.160;2023-03-01T07:12:55;17.80;;;16.20;;
11921;SDS011;6021;51.182;3.160;2023-03-01T07:15:25;16.93;;;15.33;;
11921;SDS011;6021;51.182;3.160;2023-03-01T07:17:55;15.80;;;14.40;;
11921;SDS011;6021;51.182;3.160;2023-03-01T07:20:24;15.73;;;14.33;;
11921;SDS011;6021;51.182;3.160;2023-03-01T07:22:53;15.77;;;14.37;;
11921;SDS011;6021;51.182;3.160;2023-03-01T07:25:24;14.23;;;12.93;;
11921;SDS011;6021;51.182;3.160;2023-03-01T07:27:53;15.23;;;13.63;;
11921;SDS011;6021;51.182;3.160;2023-03-01T07:30:21;13.97;;;12.77;;
11921;SDS011;6021;51.182;3.160;2023-03-01T07:32:51;14.27;;;12.97;;
11921;SDS011;6021;51.182;3.160;2023-03-01T07:35:20;13.83;;;12.63;;
11921;SDS011;6021;51.182;3.160;2023-03-01T07:37:49;12.83;;;11.73;;
11921;SDS011;6021;51.182;3.160;2023-03-01T07:40:17;12.03;;;10.93;;
11921;SDS011;6021;51.182;3.160;2023-03-01T07:42:46;12.57;;;11.27;;
11921;SDS011;6021;51.182;3.160;2023-03-01T07:45:14;12.10;;;11.00;;
11921;SDS011;6021;51.182;3.160;2023-03-01T07:47:43;11.37;;;10.33;;
11921;SDS011;6021;51.182;3.160;2023-03-01T07:50:11;11.80;;;10.70;;
11921;SDS011;6021;51.182;3.160;2023-03-01T07:52:40;11.93;;;10.73;;
11921;SDS011;6021;51.182;3.160;2023-03-01T07:55:08;11.67;;;10.67;;
11921;SDS011;6021;51.182;3.160;2023-03-01T07:57:36;12.03;;;11.00;;
11921;SDS011;6021;51.182;3.160;2023-03-01T08:00:05;12.60;;;11.40;;
11921;SDS011;6021;51.182;3.160;2023-03-01T08:02:34;10.73;;;9.70;;
11921;SDS011;6021;51.182;3.160;2023-03-01T08:05:03;9.47;;;8.47;;
11921;SDS011;6021;51.182;3.160;2023-03-01T08:07:32;9.80;;;8.90;;
11921;SDS011;6021;51.182;3.160;2023-03-01T08:10:01;9.57;;;8.67;;
11921;SDS011;6021;51.182;3.160;2023-03-01T08:12:29;8.47;;;7.60;;
11921;SDS011;6021;51.182;3.160;2023-03-01T08:14:57;7.83;;;7.03;;
11921;SDS011;6021;51.182;3.160;2023-03-01T08:17:26;7.53;;;6.80;;
11921;SDS011;6021;51.182;3.160;2023-03-01T08:19:54;7.27;;;6.67;;
11921;SDS011;6021;51.182;3.160;2023-03-01T08:22:22;7.37;;;6.77;;
11921;SDS011;6021;51.182;3.160;2023-03-01T08:24:51;7.20;;;6.50;;
11921;SDS011;6021;51.182;3.160;2023-03-01T08:27:21;6.93;;;6.30;;
11921;SDS011;6021;51.182;3.160;2023-03-01T08:29:49;7.03;;;6.33;;
11921;SDS011;6021;51.182;3.160;2023-03-01T08:32:18;7.00;;;6.40;;
11921;SDS011;6021;51.182;3.160;2023-03-01T08:34:46;6.90;;;6.30;;
11921;SDS011;6021;51.182;3.160;2023-03-01T08:37:15;7.00;;;6.33;;
11921;SDS011;6021;51.182;3.160;2023-03-01T08:39:43;7.00;;;6.30;;
11921;SDS011;6021;51.182;3.160;2023-03-01T08:42:13;6.87;;;6.17;;
11921;SDS011;6021;51.182;3.160;2023-03-01T08:44:41;7.10;;;6.40;;
11921;SDS011;6021;51.182;3.160;2023-03-01T08:47:10;7.20;;;6.50;;
11921;SDS011;6021;51.182;3.160;2023-03-01T08:49:38;7.20;;;6.50;;
11921;SDS011;6021;51.182;3.160;2023-03-01T08:52:06;10.30;;;8.67;;
11921;SDS011;6021;51.182;3.160;2023-03-01T08:54:35;15.67;;;14.37;;
11921;SDS011;6021;51.182;3.160;2023-03-01T08:57:04;11.03;;;10.00;;
11921;SDS011;6021;51.182;3.160;2023-03-01T08:59:33;18.37;;;16.73;;
11921;SDS011;6021;51.182;3.160;2023-03-01T09:02:03;18.87;;;16.97;;
11921;SDS011;6021;51.182;3.160;2023-03-01T09:04:33;13.70;;;12.50;;
11921;SDS011;6021;51.182;3.160;2023-03-01T09:07:01;7.10;;;6.33;;
11921;SDS011;6021;51.182;3.160;2023-03-01T09:09:30;7.80;;;7.10;;
11921;SDS011;6021;51.182;3.160;2023-03-01T09:11:58;6.90;;;6.30;;
11921;SDS011;6021;51.182;3.160;2023-03-01T09:14:26;7.33;;;6.40;;
11921;SDS011;6021;51.182;3.160;2023-03-01T09:16:55;7.20;;;5.60;;
11921;SDS011;6021;51.182;3.160;2023-03-01T09:19:24;6.57;;;5.97;;
11921;SDS011;6021;51.182;3.160;2023-03-01T09:21:52;6.77;;;6.07;;
11921;SDS011;6021;51.182;3.160;2023-03-01T09:24:22;7.00;;;6.40;;
11921;SDS011;6021;51.182;3.160;2023-03-01T09:26:54;7.30;;;6.70;;
11921;SDS011;6021;51.182;3.160;2023-03-01T09:29:23;5.97;;;5.40;;
11921;SDS011;6021;51.182;3.160;2023-03-01T09:31:52;5.57;;;5.07;;
11921;SDS011;6021;51.182;3.160;2023-03-01T09:34:24;8.53;;;7.77;;
11921;SDS011;6021;51.182;3.160;2023-03-01T09:36:52;5.67;;;5.17;;
11921;SDS011;6021;51.182;3.160;2023-03-01T09:39:21;6.57;;;5.87;;
11921;SDS011;6021;51.182;3.160;2023-03-01T09:41:55;5.97;;;5.47;;
11921;SDS011;6021;51.182;3.160;2023-03-01T09:47:26;5.73;;;5.07;;
11921;SDS011;6021;51.182;3.160;2023-03-01T09:50:01;5.33;;;4.83;;
11921;SDS011;6021;51.182;3.160;2023-03-01T09:52:42;5.03;;;4.53;;
11921;SDS011;6021;51.182;3.160;2023-03-01T09:55:16;4.43;;;3.90;;
11921;SDS011;6021;51.182;3.160;2023-03-01T09:57:50;4.60;;;4.00;;
11921;SDS011;6021;51.182;3.160;2023-03-01T10:03:12;3.97;;;3.60;;
11921;SDS011;6021;51.182;3.160;2023-03-01T10:08:40;4.40;;;3.67;;
11921;SDS011;6021;51.182;3.160;2023-03-01T10:11:24;3.73;;;3.43;;
11921;SDS011;6021;51.182;3.160;2023-03-01T10:14:13;4.33;;;3.87;;
11921;SDS011;6021;51.182;3.160;2023-03-01T10:19:31;4.17;;;3.77;;
11921;SDS011;6021;51.182;3.160;2023-03-01T10:21:57;4.00;;;3.60;;
11921;SDS011;6021;51.182;3.160;2023-03-01T10:24:28;4.60;;;4.03;;
11921;SDS011;6021;51.182;3.160;2023-03-01T10:27:02;5.20;;;3.80;;
11921;SDS011;6021;51.182;3.160;2023-03-01T10:29:39;5.00;;;3.90;;
11921;SDS011;6021;51.182;3.160;2023-03-01T10:32:09;5.23;;;3.60;;
11921;SDS011;6021;51.182;3.160;2023-03-01T10:34:39;4.77;;;4.07;;
11921;SDS011;6021;51.182;3.160;2023-03-01T10:37:11;4.40;;;4.00;;
11921;SDS011;6021;51.182;3.160;2023-03-01T10:42:57;5.17;;;4.23;;
11921;SDS011;6021;51.182;3.160;2023-03-01T10:45:23;4.30;;;3.90;;
11921;SDS011;6021;51.182;3.160;2023-03-01T10:48:02;4.33;;;3.50;;
11921;SDS011;6021;51.182;3.160;2023-03-01T10:50:22;3.97;;;3.23;;
11921;SDS011;6021;51.182;3.160;2023-03-01T10:52:59;5.23;;;4.03;;
11921;SDS011;6021;51.182;3.160;2023-03-01T10:55:32;4.20;;;3.80;;
11921;SDS011;6021;51.182;3.160;2023-03-01T11:01:04;4.13;;;3.83;;
11921;SDS011;6021;51.182;3.160;2023-03-01T11:03:35;4.60;;;4.10;;
11921;SDS011;6021;51.182;3.160;2023-03-01T11:06:26;4.93;;;4.23;;
11921;SDS011;6021;51.182;3.160;2023-03-01T11:11:45;5.47;;;4.10;;
11921;SDS011;6021;51.182;3.160;2023-03-01T11:14:16;5.70;;;3.97;;
11921;SDS011;6021;51.182;3.160;2023-03-01T11:17:04;4.97;;;3.80;;
11921;SDS011;6021;51.182;3.160;2023-03-01T11:19:33;4.70;;;3.87;;
11921;SDS011;6021;51.182;3.160;2023-03-01T11:22:03;4.03;;;3.63;;
11921;SDS011;6021;51.182;3.160;2023-03-01T11:24:44;4.87;;;3.97;;
11921;SDS011;6021;51.182;3.160;2023-03-01T11:29:54;5.73;;;4.37;;
11921;SDS011;6021;51.182;3.160;2023-03-01T11:32:24;5.00;;;4.50;;
11921;SDS011;6021;51.182;3.160;2023-03-01T11:34:58;4.47;;;4.07;;
11921;SDS011;6021;51.182;3.160;2023-03-01T11:40:35;5.20;;;4.10;;
11921;SDS011;6021;51.182;3.160;2023-03-01T11:49:04;4.50;;;4.10;;
11921;SDS011;6021;51.182;3.160;2023-03-01T11:56:52;5.90;;;4.10;;
11921;SDS011;6021;51.182;3.160;2023-03-01T12:12:00;5.80;;;3.57;;
11921;SDS011;6021;51.182;3.160;2023-03-01T12:17:20;5.43;;;4.93;;
11921;SDS011;6021;51.182;3.160;2023-03-01T12:20:11;5.13;;;4.70;;
11921;SDS011;6021;51.182;3.160;2023-03-01T12:25:48;5.73;;;5.07;;
11921;SDS011;6021;51.182;3.160;2023-03-01T12:28:30;4.80;;;4.37;;
11921;SDS011;6021;51.182;3.160;2023-03-01T12:31:31;5.47;;;4.53;;
11921;SDS011;6021;51.182;3.160;2023-03-01T12:36:54;5.20;;;4.67;;
11921;SDS011;6021;51.182;3.160;2023-03-01T12:46:07;5.60;;;5.10;;
11921;SDS011;6021;51.182;3.160;2023-03-01T12:51:26;5.03;;;4.57;;
11921;SDS011;6021;51.182;3.160;2023-03-01T12:53:58;5.73;;;5.23;;
11921;SDS011;6021;51.182;3.160;2023-03-01T12:56:33;5.50;;;5.00;;
11921;SDS011;6021;51.182;3.160;2023-03-01T13:01:46;5.70;;;5.20;;
11921;SDS011;6021;51.182;3.160;2023-03-01T13:04:40;5.67;;;5.17;;
11921;SDS011;6021;51.182;3.160;2023-03-01T13:07:14;5.87;;;5.30;;
11921;SDS011;6021;51.182;3.160;2023-03-01T13:15:41;6.43;;;5.83;;
11921;SDS011;6021;51.182;3.160;2023-03-01T13:20:52;6.83;;;5.77;;
11921;SDS011;6021;51.182;3.160;2023-03-01T13:23:27;5.93;;;5.43;;
11921;SDS011;6021;51.182;3.160;2023-03-01T13:33:55;5.50;;;5.00;;
11921;SDS011;6021;51.182;3.160;2023-03-01T13:39:05;6.10;;;5.50;;
11921;SDS011;6021;51.182;3.160;2023-03-01T13:41:54;5.80;;;5.17;;
11921;SDS011;6021;51.182;3.160;2023-03-01T13:44:35;5.80;;;5.23;;
11921;SDS011;6021;51.182;3.160;2023-03-01T13:49:50;5.33;;;4.83;;
11921;SDS011;6021;51.182;3.160;2023-03-01T13:52:39;5.40;;;4.90;;
11921;SDS011;6021;51.182;3.160;2023-03-01T13:55:23;6.47;;;5.33;;
11921;SDS011;6021;51.182;3.160;2023-03-01T13:57:57;5.70;;;5.20;;
11921;SDS011;6021;51.182;3.160;2023-03-01T14:03:22;8.60;;;5.40;;
11921;SDS011;6021;51.182;3.160;2023-03-01T14:08:45;6.20;;;5.00;;
11921;SDS011;6021;51.182;3.160;2023-03-01T14:14:25;5.87;;;5.33;;
11921;SDS011;6021;51.182;3.160;2023-03-01T14:17:07;5.73;;;5.17;;
11921;SDS011;6021;51.182;3.160;2023-03-01T14:19:37;5.97;;;5.30;;
11921;SDS011;6021;51.182;3.160;2023-03-01T14:22:20;5.77;;;5.27;;
11921;SDS011;6021;51.182;3.160;2023-03-01T14:28:11;5.90;;;5.40;;
11921;SDS011;6021;51.182;3.160;2023-03-01T14:30:58;5.60;;;5.10;;
11921;SDS011;6021;51.182;3.160;2023-03-01T14:33:30;5.93;;;5.30;;
11921;SDS011;6021;51.182;3.160;2023-03-01T14:36:08;6.80;;;5.50;;
11921;SDS011;6021;51.182;3.160;2023-03-01T14:41:27;6.03;;;5.27;;
11921;SDS011;6021;51.182;3.160;2023-03-01T14:43:57;6.10;;;5.10;;
11921;SDS011;6021;51.182;3.160;2023-03-01T14:51:51;6.10;;;5.12;;
11921;SDS011;6021;51.182;3.160;2023-03-01T14:54:32;6.93;;;5.27;;
11921;SDS011;6021;51.182;3.160;2023-03-01T14:57:00;5.93;;;5.30;;
11921;SDS011;6021;51.182;3.160;2023-03-01T15:02:38;7.03;;;5.60;;
11921;SDS011;6021;51.182;3.160;2023-03-01T15:05:09;6.20;;;5.67;;
11921;SDS011;6021;51.182;3.160;2023-03-01T15:07:43;6.00;;;5.50;;
11921;SDS011;6021;51.182;3.160;2023-03-01T15:10:19;6.37;;;5.47;;
11921;SDS011;6021;51.182;3.160;2023-03-01T15:12:53;6.43;;;5.80;;
11921;SDS011;6021;51.182;3.160;2023-03-01T15:15:22;6.40;;;5.80;;
11921;SDS011;6021;51.182;3.160;2023-03-01T15:18:17;6.37;;;5.77;;
11921;SDS011;6021;51.182;3.160;2023-03-01T15:20:51;5.97;;;5.43;;
11921;SDS011;6021;51.182;3.160;2023-03-01T15:23:36;6.03;;;5.53;;
11921;SDS011;6021;51.182;3.160;2023-03-01T15:25:51;6.40;;;5.83;;
11921;SDS011;6021;51.182;3.160;2023-03-01T15:28:29;6.03;;;5.53;;
11921;SDS011;6021;51.182;3.160;2023-03-01T15:31:03;6.43;;;5.83;;
11921;SDS011;6021;51.182;3.160;2023-03-01T15:33:34;6.27;;;5.67;;
11921;SDS011;6021;51.182;3.160;2023-03-01T15:39:22;6.47;;;5.83;;
11921;SDS011;6021;51.182;3.160;2023-03-01T15:41:47;6.37;;;5.77;;
11921;SDS011;6021;51.182;3.160;2023-03-01T15:44:17;6.40;;;5.80;;
11921;SDS011;6021;51.182;3.160;2023-03-01T15:46:48;6.67;;;5.97;;
11921;SDS011;6021;51.182;3.160;2023-03-01T15:52:14;6.87;;;6.23;;
11921;SDS011;6021;51.182;3.160;2023-03-01T15:55:01;6.60;;;5.60;;
11921;SDS011;6021;51.182;3.160;2023-03-01T15:57:32;12.30;;;8.93;;
11921;SDS011;6021;51.182;3.160;2023-03-01T16:00:08;6.87;;;6.17;;
11921;SDS011;6021;51.182;3.160;2023-03-01T16:02:42;8.50;;;7.57;;
11921;SDS011;6021;51.182;3.160;2023-03-01T16:05:16;10.10;;;8.17;;
11921;SDS011;6021;51.182;3.160;2023-03-01T16:07:45;31.60;;;21.83;;
11921;SDS011;6021;51.182;3.160;2023-03-01T16:10:14;24.23;;;17.83;;
11921;SDS011;6021;51.182;3.160;2023-03-01T16:12:43;19.93;;;13.33;;
11921;SDS011;6021;51.182;3.160;2023-03-01T16:15:18;11.27;;;9.17;;
11921;SDS011;6021;51.182;3.160;2023-03-01T16:17:48;11.50;;;9.17;;
11921;SDS011;6021;51.182;3.160;2023-03-01T16:20:20;7.00;;;6.30;;
11921;SDS011;6021;51.182;3.160;2023-03-01T16:22:50;7.40;;;6.60;;
11921;SDS011;6021;51.182;3.160;2023-03-01T16:25:19;6.30;;;5.60;;
11921;SDS011;6021;51.182;3.160;2023-03-01T16:27:49;9.83;;;6.47;;
11921;SDS011;6021;51.182;3.160;2023-03-01T16:30:19;7.47;;;6.53;;
11921;SDS011;6021;51.182;3.160;2023-03-01T16:32:49;8.23;;;7.03;;
11921;SDS011;6021;51.182;3.160;2023-03-01T16:35:18;7.90;;;7.03;;
11921;SDS011;6021;51.182;3.160;2023-03-01T16:37:49;10.77;;;8.50;;
11921;SDS011;6021;51.182;3.160;2023-03-01T16:40:20;7.13;;;6.43;;
11921;SDS011;6021;51.182;3.160;2023-03-01T16:42:54;9.57;;;8.20;;
11921;SDS011;6021;51.182;3.160;2023-03-01T16:45:26;7.63;;;6.60;;
11921;SDS011;6021;51.182;3.160;2023-03-01T16:47:55;6.67;;;6.07;;
11921;SDS011;6021;51.182;3.160;2023-03-01T16:50:25;7.23;;;6.53;;
11921;SDS011;6021;51.182;3.160;2023-03-01T16:52:55;6.93;;;6.30;;
11921;SDS011;6021;51.182;3.160;2023-03-01T16:55:23;7.20;;;6.50;;
11921;SDS011;6021;51.182;3.160;2023-03-01T16:57:52;7.60;;;6.60;;
11921;SDS011;6021;51.182;3.160;2023-03-01T17:00:22;7.20;;;6.50;;
11921;SDS011;6021;51.182;3.160;2023-03-01T17:02:50;7.80;;;6.07;;
11921;SDS011;6021;51.182;3.160;2023-03-01T17:05:18;6.40;;;5.73;;
11921;SDS011;6021;51.182;3.160;2023-03-01T17:07:50;5.97;;;5.40;;
11921;SDS011;6021;51.182;3.160;2023-03-01T17:10:20;7.27;;;6.57;;
11921;SDS011;6021;51.182;3.160;2023-03-01T17:12:49;6.57;;;5.97;;
11921;SDS011;6021;51.182;3.160;2023-03-01T17:15:19;7.47;;;6.30;;
11921;SDS011;6021;51.182;3.160;2023-03-01T17:17:48;6.30;;;5.70;;
11921;SDS011;6021;51.182;3.160;2023-03-01T17:20:19;6.10;;;5.60;;